Terminal Aerodrome Forecast
Issued by NWS

Home | Current Version | Previous Version | Text Only | Print | Product List | Glossary On
Versions: 1 2 3 4 5 6 7 8 9 10 11 12 13 14 15 16 17 18 19 20 21 22 23 24 25 26
363
FTUS46 KPDT 210539
TAFALW
TAF
KALW 210539Z 2106/2206 14005KT P6SM VCSH SCT070 OVC090
     FM210800 15006KT P6SM -RA SCT035 OVC050
     FM211500 20008KT 4SM -RA BR BKN022 OVC035
     FM212000 22012KT 3SM -RA BR SCT014 OVC020
     FM220300 20014KT P6SM VCSH SCT030 BKN070=

USA.gov is the U.S. government's official web portal to all federal, state and local government web resources and services.